Archer, NE

3:32 AM CDT on October 24, 2014 (GMT -0500)
Central Nebraska Regional | Change Station
CLOSE
Current Station
Airport
Location: Grand Island,
Elevation: 1857 ft
Nearby Weather Stations

Elev 1857 ft 40.96 °N, 98.31 °W | Updated 39 minutes ago

Clear
Clear
58 °F
Feels Like 58 °F
N
12
Wind Variable Wind from SSW

Today
High -- | Low -- °F
--% Chance of Precip.
Yesterday
High -- | Low -- °F
Precip. -- in
7:54 AM 6:38 PM
New Moon, 0% visible
Pressure 29.96 in
Visibility 6.0 miles
Clouds Clear
Dew Point 55 °F
Humidity 90%
Rainfall 0.00 in
Snow Depth Not available.
UV 0 out of 12
Pollen 1.80 out of 12
Air Quality Not available.
Flu Activity Sporadic
METAR KGRI 240753Z AUTO 21010KT 6SM BR CLR 14/13 A2997 RMK AO2 SLP144 T01440128

More Conditions Fewer Conditions

Pressure 29.96 in
Visibility 6.0 miles
Clouds Clear
Dew Point 55 °F
Humidity 90%
Rainfall 0.00 in
Snow Depth Not available.
UV 0 out of 12
Pollen 1.80 out of 12
Air Quality Not available.
Flu Activity Sporadic
METAR KGRI 240753Z AUTO 21010KT 6SM BR CLR 14/13 A2997 RMK AO2 SLP144 T01440128

More Conditions Fewer Conditions

10-Day Weather Forecast

Almanac

Astronomy

Oct. 24, 2014 Rise Set
Actual Time 7:54 AM CDT 6:38 PM CDT
Civil Twilight 7:26 AM CDT 7:06 PM CDT
Nautical Twilight 6:53 AM CDT 7:38 PM CDT
Astronomical Twilight 6:21 AM CDT 8:10 PM CDT
Moon 8:35 AM CDT 7:18 PM CDT
Length of Visible Light 11h 40m
Length of Day
10h 44m
Tomorrow will be 2m 32s shorter.
New Moon, 0% of the Moon is Illuminated
Today
New Moon
Oct 30
First Quarter
Nov 6
Full
Nov 14
Last Quarter
Nov 22
New

Today's Extremes

State Highs State Lows

Community

WunderPhotos

Upload Photos

1,764,511 photos uploaded!

WunderBlogs® & News

Nearby

Snow Depth

Station Depth Elevation
No new snow has been reported.

Earthquake Activity

City Distance Mag. Time & Date
No recent earthquake activity has been reported nearby.
Minimum magnitude displayed is 2.5.

Coastal Water Temperatures

Place Temperature
No Stations Reporting

Nearby Weather Stations